createdAt,value
2022-12-31T00:02:25.749Z,201.35
2022-12-31T00:04:55.832Z,210.80
2022-12-31T00:07:24.045Z,201.50
2022-12-31T00:09:52.231Z,191.68
2022-12-31T00:12:20.531Z,177.88
2022-12-31T00:14:48.704Z,182.20
2022-12-31T00:17:17.047Z,166.60
2022-12-31T00:19:45.153Z,166.45
2022-12-31T00:22:13.363Z,165.20
2022-12-31T00:24:41.608Z,185.63
2022-12-31T00:27:09.835Z,181.70
2022-12-31T00:29:38.191Z,180.18
2022-12-31T00:32:06.718Z,170.82
2022-12-31T00:34:35.243Z,167.45
2022-12-31T00:37:03.515Z,173.73
2022-12-31T00:39:31.873Z,168.73
2022-12-31T00:41:59.962Z,169.52
2022-12-31T00:44:28.280Z,168.80
2022-12-31T00:46:56.515Z,164.85
2022-12-31T00:49:24.779Z,161.20
2022-12-31T00:51:53.129Z,164.45
2022-12-31T00:54:21.271Z,157.43
2022-12-31T00:56:49.472Z,152.00
2022-12-31T00:59:17.659Z,157.43
2022-12-31T01:01:46.035Z,156.40
2022-12-31T01:04:18.077Z,155.10
2022-12-31T01:06:46.759Z,154.15
2022-12-31T01:09:17.051Z,159.93
2022-12-31T01:11:45.616Z,159.57
2022-12-31T01:14:16.782Z,151.32
2022-12-31T01:16:52.859Z,148.70
2022-12-31T01:19:25.552Z,145.07
2022-12-31T01:21:54.750Z,152.60
2022-12-31T01:24:22.922Z,157.00
2022-12-31T01:26:51.364Z,136.90
2022-12-31T01:29:19.698Z,137.10
2022-12-31T01:31:48.032Z,138.50
2022-12-31T01:34:16.238Z,137.40
2022-12-31T01:36:45.454Z,129.68
2022-12-31T01:39:14.394Z,134.55
2022-12-31T01:41:45.228Z,127.10
2022-12-31T01:44:13.369Z,125.18
2022-12-31T01:46:53.178Z,127.13
2022-12-31T01:49:42.360Z,117.20
2022-12-31T01:52:24.561Z,111.93
2022-12-31T01:57:26.948Z,110.20
2022-12-31T01:59:57.120Z,110.50
2022-12-31T02:02:26.187Z,111.80
2022-12-31T02:04:57.686Z,107.97
2022-12-31T02:07:26.368Z,103.72
2022-12-31T02:09:55.006Z,98.68
2022-12-31T02:12:23.527Z,93.55
2022-12-31T02:14:53.767Z,91.38
2022-12-31T02:17:56.194Z,89.70
2022-12-31T02:20:51.175Z,89.65
2022-12-31T02:23:26.216Z,90.32
2022-12-31T02:26:12.774Z,89.75
2022-12-31T02:29:05.686Z,86.07
2022-12-31T02:31:55.575Z,91.75
2022-12-31T02:34:37.685Z,92.28
2022-12-31T02:37:11.227Z,100.10
2022-12-31T02:39:41.642Z,99.72
2022-12-31T02:42:12.198Z,102.22
2022-12-31T02:44:43.075Z,106.70
2022-12-31T02:47:29.851Z,103.05
2022-12-31T02:50:27.572Z,96.97
2022-12-31T02:53:13.402Z,87.45
2022-12-31T02:55:47.949Z,85.22
2022-12-31T02:58:19.285Z,84.88
2022-12-31T03:00:52.422Z,85.03
2022-12-31T03:03:22.331Z,86.97
2022-12-31T03:05:51.383Z,84.45
2022-12-31T03:08:26.949Z,77.95
2022-12-31T03:10:55.206Z,77.32
2022-12-31T03:13:24.659Z,80.90
2022-12-31T03:15:52.967Z,80.28
2022-12-31T03:18:21.182Z,78.80
2022-12-31T03:20:51.602Z,76.47
2022-12-31T03:23:23.631Z,77.50
2022-12-31T03:25:52.045Z,69.25
2022-12-31T03:28:22.975Z,70.95
2022-12-31T03:30:54.671Z,73.85
2022-12-31T03:33:24.697Z,74.97
2022-12-31T03:35:54.266Z,71.22
2022-12-31T03:38:22.519Z,69.90
2022-12-31T03:40:52.641Z,69.90
2022-12-31T03:43:21.315Z,66.40
2022-12-31T03:45:54.403Z,65.47
2022-12-31T03:48:24.212Z,67.03
2022-12-31T03:50:52.528Z,63.50
2022-12-31T03:53:20.856Z,61.90
2022-12-31T03:55:53.348Z,65.25
2022-12-31T03:58:22.292Z,66.63
2022-12-31T04:00:51.052Z,66.38
2022-12-31T04:03:19.785Z,70.25
2022-12-31T04:05:56.364Z,67.88
2022-12-31T04:08:25.198Z,64.80
2022-12-31T04:10:53.645Z,64.85
2022-12-31T04:13:21.849Z,64.15
2022-12-31T04:15:53.048Z,65.90
2022-12-31T04:18:21.385Z,64.03
2022-12-31T04:20:49.420Z,66.05
2022-12-31T04:23:19.014Z,64.88
2022-12-31T04:25:47.342Z,60.85
2022-12-31T04:28:15.445Z,58.63
2022-12-31T04:30:44.565Z,57.70
2022-12-31T04:33:12.978Z,57.38
2022-12-31T04:35:41.235Z,57.85
2022-12-31T04:38:09.462Z,59.42
2022-12-31T04:40:37.639Z,56.50
2022-12-31T04:43:06.064Z,55.72
2022-12-31T04:45:34.321Z,52.88
2022-12-31T04:48:02.608Z,51.90
2022-12-31T04:50:30.751Z,51.40
2022-12-31T04:52:58.947Z,51.92
2022-12-31T04:55:27.221Z,53.60
2022-12-31T04:57:55.471Z,50.97
2022-12-31T05:00:23.792Z,54.05
2022-12-31T05:02:52.018Z,51.03
2022-12-31T05:05:20.168Z,50.38
2022-12-31T05:07:48.498Z,51.05
2022-12-31T05:10:16.743Z,48.67
2022-12-31T05:12:44.944Z,50.65
2022-12-31T05:15:13.388Z,49.72
2022-12-31T05:17:41.577Z,49.33
2022-12-31T05:20:10.064Z,48.40
2022-12-31T05:22:38.345Z,50.15
2022-12-31T05:25:07.006Z,49.30
2022-12-31T05:27:35.388Z,49.78
2022-12-31T05:30:03.537Z,48.47
2022-12-31T05:32:31.906Z,46.50
2022-12-31T05:35:00.741Z,51.30
2022-12-31T05:37:30.507Z,50.85
2022-12-31T05:39:59.019Z,48.03
2022-12-31T05:42:27.596Z,44.38
2022-12-31T05:44:55.983Z,48.80
2022-12-31T05:47:24.535Z,49.63
2022-12-31T05:49:53.032Z,47.63
2022-12-31T05:52:22.007Z,48.33
2022-12-31T05:54:50.732Z,51.45
2022-12-31T05:57:19.031Z,52.38
2022-12-31T05:59:47.414Z,50.58
2022-12-31T06:02:15.760Z,48.78
2022-12-31T06:04:44.168Z,51.45
2022-12-31T06:07:12.581Z,45.67
2022-12-31T06:09:40.999Z,47.28
2022-12-31T06:12:09.929Z,46.10
2022-12-31T06:14:43.804Z,46.88
2022-12-31T06:17:13.949Z,50.45
2022-12-31T06:19:42.148Z,50.58
2022-12-31T06:22:10.398Z,52.53
2022-12-31T06:24:38.776Z,52.60
2022-12-31T06:27:07.055Z,51.45
2022-12-31T06:29:35.128Z,53.60
2022-12-31T06:32:03.506Z,51.15
2022-12-31T06:34:31.801Z,53.92
2022-12-31T06:37:00.599Z,58.28
2022-12-31T06:39:29.015Z,53.28
2022-12-31T06:41:57.369Z,58.42
2022-12-31T06:44:25.583Z,60.47
2022-12-31T06:46:53.829Z,58.28
2022-12-31T06:49:24.517Z,56.97
2022-12-31T06:51:52.835Z,57.17
2022-12-31T06:54:21.342Z,57.63
2022-12-31T06:56:49.856Z,58.30
2022-12-31T06:59:27.510Z,55.38
2022-12-31T07:02:05.007Z,59.17
2022-12-31T07:05:09.401Z,60.67
2022-12-31T07:08:05.094Z,63.58
2022-12-31T07:11:02.982Z,57.25
2022-12-31T07:14:08.213Z,55.22
2022-12-31T07:16:51.695Z,58.53
2022-12-31T07:19:41.335Z,56.28
2022-12-31T07:22:16.076Z,57.67
2022-12-31T07:24:44.987Z,55.92
2022-12-31T07:27:37.923Z,53.85
2022-12-31T07:30:18.559Z,52.85
2022-12-31T07:32:57.522Z,57.67
2022-12-31T07:35:45.559Z,56.75
2022-12-31T07:38:38.420Z,60.85
2022-12-31T07:41:43.903Z,60.30
2022-12-31T07:44:15.236Z,58.42
2022-12-31T07:47:00.601Z,60.23
2022-12-31T07:49:31.573Z,62.10
2022-12-31T07:52:00.486Z,57.47
2022-12-31T07:54:28.860Z,52.67
2022-12-31T07:56:56.978Z,51.53
2022-12-31T07:59:43.695Z,49.38
2022-12-31T08:02:15.069Z,47.88
2022-12-31T08:04:49.710Z,43.60
2022-12-31T08:07:42.758Z,44.97
2022-12-31T08:10:17.286Z,38.03
2022-12-31T08:12:49.086Z,35.15
2022-12-31T08:15:20.045Z,37.15
2022-12-31T08:17:49.819Z,38.22
2022-12-31T08:20:18.927Z,32.70
2022-12-31T08:23:08.665Z,32.90
2022-12-31T08:26:14.098Z,33.58
2022-12-31T08:28:42.427Z,29.15
2022-12-31T08:31:23.914Z,29.95
2022-12-31T08:34:05.499Z,34.83
2022-12-31T08:37:01.837Z,34.92
2022-12-31T08:39:36.986Z,32.30
2022-12-31T08:42:11.539Z,32.40
2022-12-31T08:45:13.386Z,32.92
2022-12-31T08:48:00.057Z,34.03
2022-12-31T08:50:29.052Z,40.38
2022-12-31T08:52:57.563Z,35.22
2022-12-31T08:58:34.865Z,40.00
2022-12-31T09:01:07.857Z,34.80
2022-12-31T09:03:51.114Z,37.10
2022-12-31T09:06:31.435Z,32.45
2022-12-31T09:11:55.602Z,34.10
2022-12-31T09:14:44.108Z,32.28
2022-12-31T09:17:45.025Z,35.25
2022-12-31T09:20:43.006Z,33.47
2022-12-31T09:23:13.664Z,33.65
2022-12-31T09:25:57.214Z,32.55
2022-12-31T09:28:52.628Z,32.65
2022-12-31T09:31:40.981Z,40.42
2022-12-31T09:34:19.512Z,38.85
2022-12-31T09:36:53.073Z,37.55
2022-12-31T09:39:37.753Z,35.53
2022-12-31T09:42:26.207Z,33.67
2022-12-31T09:45:10.057Z,36.22
2022-12-31T09:48:05.128Z,37.58
2022-12-31T09:51:18.146Z,38.88
2022-12-31T09:54:27.571Z,37.65
2022-12-31T09:57:11.292Z,30.88
2022-12-31T09:59:46.143Z,31.05
2022-12-31T10:02:36.188Z,27.73
2022-12-31T10:05:36.136Z,25.20
2022-12-31T10:08:35.367Z,27.15
2022-12-31T10:11:33.880Z,25.77
2022-12-31T10:14:04.974Z,21.88
2022-12-31T10:16:53.705Z,23.02
2022-12-31T10:19:34.062Z,23.70
2022-12-31T10:22:15.328Z,22.98
2022-12-31T10:24:51.190Z,23.15
2022-12-31T10:27:38.091Z,23.70
2022-12-31T10:30:23.008Z,23.17
2022-12-31T10:33:08.183Z,25.30
2022-12-31T10:35:56.660Z,27.35
2022-12-31T10:38:48.935Z,27.05
2022-12-31T10:41:26.160Z,24.63
2022-12-31T10:44:28.701Z,24.67
2022-12-31T10:47:27.688Z,26.00
2022-12-31T10:50:37.644Z,26.40
2022-12-31T10:53:26.045Z,28.60
2022-12-31T10:56:03.684Z,28.15
2022-12-31T10:59:14.246Z,28.60
2022-12-31T11:02:01.403Z,27.35
2022-12-31T11:05:06.965Z,26.38
2022-12-31T11:08:03.001Z,25.60
2022-12-31T11:10:42.416Z,33.63
2022-12-31T11:13:21.360Z,26.50
2022-12-31T11:16:03.622Z,24.13
2022-12-31T11:19:18.260Z,24.13
2022-12-31T11:22:11.976Z,23.27
2022-12-31T11:24:52.818Z,21.30
2022-12-31T11:28:06.456Z,24.50
2022-12-31T11:30:59.339Z,23.55
2022-12-31T11:33:48.454Z,24.15
2022-12-31T11:37:08.895Z,19.85
2022-12-31T11:40:04.605Z,23.08
2022-12-31T11:42:53.830Z,21.73
2022-12-31T11:45:55.274Z,21.45
2022-12-31T11:49:02.499Z,20.77
2022-12-31T11:51:33.859Z,20.10
2022-12-31T11:54:39.460Z,27.08
2022-12-31T11:57:26.133Z,25.23
2022-12-31T12:00:18.559Z,19.05
2022-12-31T12:03:05.171Z,20.65
2022-12-31T12:05:35.521Z,20.42
2022-12-31T12:08:04.270Z,19.45
2022-12-31T12:10:41.569Z,22.13
2022-12-31T12:13:24.915Z,20.50
2022-12-31T12:16:06.701Z,21.40
2022-12-31T12:21:16.783Z,19.55
2022-12-31T12:24:07.306Z,21.30
2022-12-31T12:26:41.498Z,18.42
2022-12-31T12:29:16.837Z,19.63
2022-12-31T12:32:00.183Z,22.25
2022-12-31T12:34:37.646Z,22.40
2022-12-31T12:37:08.843Z,18.65
2022-12-31T12:39:37.112Z,18.05
2022-12-31T12:42:15.237Z,21.08
2022-12-31T12:44:43.463Z,19.83
2022-12-31T12:47:19.903Z,18.38
2022-12-31T12:49:50.304Z,15.32
2022-12-31T12:52:40.236Z,15.23
2022-12-31T12:55:30.794Z,16.85
2022-12-31T12:58:08.258Z,22.77
2022-12-31T13:00:55.161Z,24.25
2022-12-31T13:04:32.467Z,17.42
2022-12-31T13:06:53.270Z,18.65
2022-12-31T13:09:46.203Z,17.80
2022-12-31T13:12:48.871Z,18.98
2022-12-31T13:15:46.148Z,17.17
2022-12-31T13:18:14.398Z,17.25
2022-12-31T13:21:08.665Z,18.85
2022-12-31T13:23:47.637Z,20.35
2022-12-31T13:26:38.931Z,20.38
2022-12-31T13:29:15.199Z,16.77
2022-12-31T13:31:46.339Z,20.85
2022-12-31T13:34:17.395Z,17.55
2022-12-31T13:36:49.491Z,14.90
2022-12-31T13:41:56.139Z,19.95
2022-12-31T13:44:47.841Z,18.02
2022-12-31T13:47:31.217Z,18.30
2022-12-31T13:50:15.392Z,16.60
2022-12-31T13:52:50.051Z,16.15
2022-12-31T13:55:32.760Z,20.88
2022-12-31T13:58:37.901Z,25.95
2022-12-31T14:01:15.492Z,17.63
2022-12-31T14:04:05.233Z,35.90
2022-12-31T14:06:37.253Z,23.20
2022-12-31T14:09:07.899Z,18.75
2022-12-31T14:11:59.086Z,22.08
2022-12-31T14:14:35.408Z,32.53
2022-12-31T14:17:17.290Z,50.22
2022-12-31T14:22:33.078Z,20.88
2022-12-31T14:25:04.862Z,43.92
2022-12-31T14:30:16.385Z,18.15
2022-12-31T14:33:09.977Z,17.65
2022-12-31T14:36:08.272Z,26.67
2022-12-31T14:38:50.873Z,28.58
2022-12-31T14:41:37.683Z,23.63
2022-12-31T14:44:10.196Z,14.05
2022-12-31T14:47:01.841Z,15.70
2022-12-31T14:49:46.311Z,29.17
2022-12-31T14:52:21.387Z,19.90
2022-12-31T14:55:12.013Z,13.77
2022-12-31T14:58:17.090Z,16.48
2022-12-31T15:00:35.408Z,16.20
2022-12-31T15:03:16.019Z,18.08
2022-12-31T15:06:13.009Z,16.75
2022-12-31T15:08:56.025Z,18.63
2022-12-31T15:18:05.152Z,18.13
2022-12-31T15:20:45.427Z,21.35
2022-12-31T15:27:39.205Z,14.02
2022-12-31T15:31:21.609Z,21.58
2022-12-31T15:34:05.361Z,18.88
2022-12-31T15:36:38.670Z,18.92
2022-12-31T15:39:23.508Z,15.43
2022-12-31T15:44:49.877Z,22.45
2022-12-31T15:47:36.528Z,30.50
2022-12-31T15:50:17.543Z,16.40
2022-12-31T15:53:02.563Z,18.20
2022-12-31T15:55:35.097Z,26.50
2022-12-31T15:58:12.485Z,28.80
2022-12-31T16:00:55.808Z,20.35
2022-12-31T16:03:26.323Z,22.45
2022-12-31T16:06:03.910Z,21.73
2022-12-31T16:08:35.082Z,30.17
2022-12-31T16:11:06.575Z,29.33
2022-12-31T16:13:38.388Z,20.45
2022-12-31T16:16:23.195Z,29.38
2022-12-31T16:18:51.842Z,23.00
2022-12-31T16:21:37.640Z,28.60
2022-12-31T16:24:28.720Z,25.83
2022-12-31T16:27:01.129Z,32.22
2022-12-31T16:29:29.779Z,22.70
2022-12-31T16:31:59.043Z,25.35
2022-12-31T16:34:28.565Z,29.48
2022-12-31T16:37:04.463Z,26.63
2022-12-31T16:39:38.723Z,24.13
2022-12-31T16:42:19.984Z,21.60
2022-12-31T16:44:49.522Z,25.92
2022-12-31T16:47:24.567Z,19.17
2022-12-31T16:50:12.994Z,30.45
2022-12-31T16:52:47.272Z,30.80
2022-12-31T16:55:20.433Z,20.67
2022-12-31T16:57:52.927Z,30.15
2022-12-31T17:00:21.620Z,25.85
2022-12-31T17:03:15.367Z,27.05
2022-12-31T17:06:08.379Z,28.73
2022-12-31T17:08:45.983Z,27.52
2022-12-31T17:11:35.251Z,31.08
2022-12-31T17:14:09.779Z,30.35
2022-12-31T17:16:43.430Z,32.70
2022-12-31T17:19:48.073Z,26.95
2022-12-31T17:22:34.250Z,41.55
2022-12-31T17:25:26.031Z,40.40
2022-12-31T17:28:20.812Z,32.10
2022-12-31T17:30:49.613Z,30.95
2022-12-31T17:33:23.984Z,31.92
2022-12-31T17:36:15.270Z,31.35
2022-12-31T17:38:43.921Z,34.30
2022-12-31T17:41:27.737Z,25.48
2022-12-31T17:43:57.559Z,22.58
2022-12-31T17:46:27.191Z,25.85
2022-12-31T17:49:00.107Z,34.33
2022-12-31T17:51:28.526Z,39.22
2022-12-31T17:53:56.925Z,33.28
2022-12-31T17:56:25.058Z,31.38
2022-12-31T17:58:54.456Z,33.42
2022-12-31T18:01:24.161Z,33.55
2022-12-31T18:03:52.577Z,42.15
2022-12-31T18:06:20.915Z,48.00
2022-12-31T18:08:49.283Z,46.15
2022-12-31T18:11:26.684Z,44.30
2022-12-31T18:13:55.135Z,58.53
2022-12-31T18:16:23.537Z,53.22
2022-12-31T18:18:51.943Z,48.75
2022-12-31T18:21:32.124Z,53.92
2022-12-31T18:26:29.775Z,72.90
2022-12-31T18:29:00.431Z,58.25
2022-12-31T18:31:30.733Z,62.90
2022-12-31T18:34:00.017Z,68.47
2022-12-31T18:36:29.649Z,60.08
2022-12-31T18:38:57.989Z,64.72
2022-12-31T18:41:28.456Z,65.60
2022-12-31T18:43:56.796Z,65.57
2022-12-31T18:46:25.825Z,67.95
2022-12-31T18:48:54.019Z,71.20
2022-12-31T18:51:31.312Z,71.22
2022-12-31T18:54:01.762Z,78.85
2022-12-31T18:56:30.147Z,104.82
2022-12-31T18:58:58.557Z,95.97
2022-12-31T19:01:38.388Z,87.60
2022-12-31T19:04:27.024Z,93.60
2022-12-31T19:06:58.275Z,90.28
2022-12-31T19:12:16.003Z,82.32
2022-12-31T19:14:44.433Z,97.93
2022-12-31T19:17:12.621Z,108.40
2022-12-31T19:19:41.035Z,94.15
2022-12-31T19:22:16.083Z,98.20
2022-12-31T19:24:44.467Z,93.35
2022-12-31T19:27:12.831Z,123.30
2022-12-31T19:29:41.096Z,141.75
2022-12-31T19:32:09.589Z,160.60
2022-12-31T19:34:37.966Z,166.23
2022-12-31T19:37:06.284Z,146.57
2022-12-31T19:39:34.418Z,134.05
2022-12-31T19:42:02.614Z,124.25
2022-12-31T19:44:30.976Z,125.85
2022-12-31T19:46:59.119Z,123.65
2022-12-31T19:49:27.264Z,141.55
2022-12-31T19:51:55.636Z,154.73
2022-12-31T19:54:23.888Z,170.00
2022-12-31T19:56:52.114Z,192.52
2022-12-31T19:59:20.364Z,198.20
2022-12-31T20:01:48.687Z,179.40
2022-12-31T20:04:17.082Z,185.27
2022-12-31T20:06:45.298Z,186.27
2022-12-31T20:09:13.681Z,175.15
2022-12-31T20:11:42.120Z,168.98
2022-12-31T20:14:10.521Z,150.07
2022-12-31T20:16:38.865Z,146.18
2022-12-31T20:19:07.270Z,144.25
2022-12-31T20:21:35.438Z,143.20
2022-12-31T20:24:03.596Z,134.65
2022-12-31T20:26:31.957Z,130.35
2022-12-31T20:29:00.116Z,122.80
2022-12-31T20:31:29.522Z,117.90
2022-12-31T20:33:57.855Z,117.63
2022-12-31T20:36:26.063Z,114.93
2022-12-31T20:38:54.239Z,113.70
2022-12-31T20:41:23.998Z,108.10
2022-12-31T20:43:52.662Z,110.53
2022-12-31T20:46:25.927Z,113.18
2022-12-31T20:48:55.997Z,109.72
2022-12-31T20:51:25.497Z,107.65
2022-12-31T20:53:56.053Z,105.38
2022-12-31T20:56:27.263Z,107.15
2022-12-31T20:58:56.021Z,107.43
2022-12-31T21:01:25.262Z,100.78
2022-12-31T21:04:04.830Z,105.07
2022-12-31T21:07:50.226Z,105.13
2022-12-31T21:10:18.622Z,98.13
2022-12-31T21:12:46.806Z,99.43
2022-12-31T21:15:15.183Z,110.93
2022-12-31T21:17:43.429Z,107.25
2022-12-31T21:20:12.265Z,105.43
2022-12-31T21:22:40.636Z,118.28
2022-12-31T21:25:10.343Z,133.90
2022-12-31T21:27:38.648Z,127.93
2022-12-31T21:30:22.602Z,130.40
2022-12-31T21:32:50.960Z,124.45
2022-12-31T21:38:09.012Z,116.95
2022-12-31T21:40:37.871Z,118.10
2022-12-31T21:43:06.337Z,133.57
2022-12-31T21:45:34.858Z,141.90
2022-12-31T21:48:03.518Z,148.88
2022-12-31T21:50:31.827Z,147.98
2022-12-31T21:53:00.108Z,156.32
2022-12-31T21:55:28.273Z,165.43
2022-12-31T21:58:27.390Z,171.25
2022-12-31T22:00:44.675Z,173.15
2022-12-31T22:03:13.430Z,174.43
2022-12-31T22:06:01.653Z,183.65
2022-12-31T22:08:31.294Z,194.38
2022-12-31T22:10:59.516Z,209.13
2022-12-31T22:13:27.756Z,209.70
2022-12-31T22:16:04.338Z,211.60
2022-12-31T22:18:36.046Z,206.35
2022-12-31T22:21:18.929Z,216.95
2022-12-31T22:23:50.036Z,203.88
2022-12-31T22:26:20.363Z,212.52
2022-12-31T22:28:48.920Z,226.43
2022-12-31T22:31:20.360Z,232.25
2022-12-31T22:33:48.913Z,250.48
2022-12-31T22:36:20.726Z,272.67
2022-12-31T22:38:49.930Z,281.25
2022-12-31T22:41:20.821Z,281.90
2022-12-31T22:43:51.373Z,279.35
2022-12-31T22:46:24.951Z,287.15
2022-12-31T22:48:57.591Z,283.75
2022-12-31T22:51:30.528Z,277.80
2022-12-31T22:54:15.489Z,280.92
2022-12-31T22:56:43.729Z,296.75
2022-12-31T22:59:11.990Z,294.75
2022-12-31T23:01:40.254Z,312.00
2022-12-31T23:04:08.737Z,295.25
2022-12-31T23:06:37.080Z,295.33
2022-12-31T23:09:05.510Z,288.17
2022-12-31T23:11:39.026Z,285.38
2022-12-31T23:14:08.730Z,294.10
2022-12-31T23:16:37.213Z,285.08
2022-12-31T23:19:05.984Z,258.98
2022-12-31T23:21:34.342Z,247.25
2022-12-31T23:24:02.517Z,245.35
2022-12-31T23:26:30.812Z,247.55
2022-12-31T23:28:59.183Z,240.15
2022-12-31T23:31:27.496Z,236.48
2022-12-31T23:33:56.301Z,217.77
2022-12-31T23:36:24.701Z,197.32
2022-12-31T23:38:55.685Z,189.05
2022-12-31T23:41:24.184Z,190.05
2022-12-31T23:43:52.379Z,200.75
2022-12-31T23:46:20.796Z,194.40
2022-12-31T23:48:49.037Z,185.85
2022-12-31T23:51:17.373Z,174.80
2022-12-31T23:53:45.562Z,176.95
2022-12-31T23:56:23.018Z,163.98
2022-12-31T23:58:56.199Z,161.60
